createdAt,value
2018-12-31T00:02:34.478Z,6.05
2018-12-31T00:07:38.963Z,5.96
2018-12-31T00:12:43.385Z,5.99
2018-12-31T00:17:47.770Z,5.91
2018-12-31T00:22:52.141Z,6.04
2018-12-31T00:27:56.484Z,5.96
2018-12-31T00:33:00.869Z,5.84
2018-12-31T00:38:05.216Z,5.68
2018-12-31T00:43:09.569Z,5.93
2018-12-31T00:48:13.933Z,5.62
2018-12-31T00:53:18.302Z,5.69
2018-12-31T00:58:22.695Z,5.63
2018-12-31T01:03:27.057Z,5.72
2018-12-31T01:08:31.421Z,5.69
2018-12-31T01:13:35.877Z,5.96
2018-12-31T01:18:40.217Z,5.83
2018-12-31T01:23:44.609Z,5.82
2018-12-31T01:28:48.980Z,5.87
2018-12-31T01:33:53.356Z,5.73
2018-12-31T01:38:57.746Z,5.77
2018-12-31T01:44:02.071Z,5.94
2018-12-31T01:49:06.435Z,6.00
2018-12-31T01:54:10.773Z,5.82
2018-12-31T01:59:15.145Z,5.76
2018-12-31T02:04:19.493Z,5.68
2018-12-31T02:09:23.821Z,5.74
2018-12-31T02:14:28.194Z,5.90
2018-12-31T02:19:32.564Z,5.88
2018-12-31T02:24:36.935Z,5.71
2018-12-31T02:29:41.363Z,5.49
2018-12-31T02:34:45.726Z,5.57
2018-12-31T02:39:50.088Z,5.67
2018-12-31T02:44:54.498Z,5.57
2018-12-31T02:49:58.847Z,5.63
2018-12-31T02:55:03.247Z,5.73
2018-12-31T03:00:08.187Z,5.86
2018-12-31T03:05:12.667Z,5.94
2018-12-31T03:10:17.004Z,5.78
2018-12-31T03:15:21.350Z,5.75
2018-12-31T03:20:25.737Z,5.69
2018-12-31T03:25:30.101Z,5.73
2018-12-31T03:30:34.466Z,5.75
2018-12-31T03:35:38.843Z,5.78
2018-12-31T03:40:43.192Z,5.78
2018-12-31T03:45:47.567Z,5.84
2018-12-31T03:50:51.917Z,5.86
2018-12-31T03:55:56.304Z,5.79
2018-12-31T04:01:00.679Z,5.60
2018-12-31T04:06:05.022Z,5.78
2018-12-31T04:11:09.415Z,5.77
2018-12-31T04:16:13.791Z,5.64
2018-12-31T04:21:18.113Z,5.77
2018-12-31T04:26:22.501Z,5.78
2018-12-31T04:31:26.897Z,5.80
2018-12-31T04:36:31.237Z,5.76
2018-12-31T04:41:35.577Z,5.79
2018-12-31T04:46:40.036Z,5.89
2018-12-31T04:51:44.432Z,5.66
2018-12-31T04:56:48.770Z,5.75
2018-12-31T05:01:53.193Z,5.95
2018-12-31T05:06:57.610Z,5.75
2018-12-31T05:12:02.024Z,5.82
2018-12-31T05:17:09.215Z,5.97
2018-12-31T05:22:13.584Z,5.86
2018-12-31T05:27:17.960Z,5.87
2018-12-31T05:32:22.281Z,5.87
2018-12-31T05:37:26.749Z,5.97
2018-12-31T05:42:31.090Z,5.84
2018-12-31T05:47:35.471Z,5.76
2018-12-31T05:52:39.842Z,5.89
2018-12-31T05:57:44.295Z,5.78
2018-12-31T06:02:48.670Z,5.83
2018-12-31T06:07:53.063Z,5.65
2018-12-31T06:12:57.435Z,5.69
2018-12-31T06:18:01.799Z,5.88
2018-12-31T06:23:06.151Z,5.85
2018-12-31T06:28:10.548Z,5.81
2018-12-31T06:33:14.905Z,5.65
2018-12-31T06:38:19.266Z,5.60
2018-12-31T06:43:23.643Z,5.76
2018-12-31T06:48:28.018Z,5.72
2018-12-31T06:53:32.369Z,5.76
2018-12-31T06:58:36.713Z,5.84
2018-12-31T07:03:41.075Z,5.89
2018-12-31T07:08:45.457Z,6.00
2018-12-31T07:13:49.866Z,5.92
2018-12-31T07:18:54.217Z,6.08
2018-12-31T07:23:58.598Z,6.15
2018-12-31T07:29:03.052Z,6.10
2018-12-31T07:34:07.436Z,5.97
2018-12-31T07:39:11.819Z,6.08
2018-12-31T07:44:16.191Z,6.11
2018-12-31T07:49:20.579Z,5.96
2018-12-31T07:54:24.960Z,6.28
2018-12-31T07:59:29.322Z,6.18
2018-12-31T08:04:33.692Z,6.16
2018-12-31T08:09:38.071Z,6.23
2018-12-31T08:14:42.503Z,6.47
2018-12-31T08:19:46.921Z,6.20
2018-12-31T08:24:51.332Z,6.35
2018-12-31T08:29:55.694Z,6.25
2018-12-31T08:35:00.033Z,6.37
2018-12-31T08:40:05.060Z,6.42
2018-12-31T08:45:09.487Z,6.48
2018-12-31T08:50:13.888Z,6.61
2018-12-31T08:55:18.268Z,6.59
2018-12-31T09:00:22.740Z,6.65
2018-12-31T09:05:27.134Z,6.61
2018-12-31T09:10:31.520Z,6.78
2018-12-31T09:15:35.860Z,6.77
2018-12-31T09:20:40.243Z,6.86
2018-12-31T09:25:44.613Z,6.93
2018-12-31T09:30:49.064Z,6.84
2018-12-31T09:35:53.519Z,6.97
2018-12-31T09:40:57.895Z,7.01
2018-12-31T09:46:02.256Z,7.19
2018-12-31T09:51:06.691Z,7.10
2018-12-31T09:56:11.094Z,7.24
2018-12-31T10:01:15.457Z,7.31
2018-12-31T10:06:19.846Z,7.33
2018-12-31T10:11:24.280Z,7.21
2018-12-31T10:16:30.490Z,7.43
2018-12-31T10:21:40.876Z,7.28
2018-12-31T10:26:41.080Z,7.32
2018-12-31T10:31:45.502Z,7.55
2018-12-31T10:36:49.854Z,7.54
2018-12-31T10:41:54.214Z,7.44
2018-12-31T10:46:58.567Z,7.37
2018-12-31T10:52:03.025Z,7.49
2018-12-31T10:57:07.384Z,7.79
2018-12-31T11:02:12.726Z,7.49
2018-12-31T11:07:17.085Z,7.47
2018-12-31T11:12:21.679Z,7.38
2018-12-31T11:17:25.986Z,7.54
2018-12-31T11:22:30.349Z,7.50
2018-12-31T11:27:34.816Z,7.71
2018-12-31T11:32:39.171Z,7.64
2018-12-31T11:37:43.522Z,7.68
2018-12-31T11:42:47.984Z,7.78
2018-12-31T11:47:52.394Z,7.75
2018-12-31T11:52:56.762Z,7.63
2018-12-31T11:58:01.158Z,7.70
2018-12-31T12:03:05.635Z,7.59
2018-12-31T12:08:10.001Z,7.61
2018-12-31T12:13:16.955Z,7.71
2018-12-31T12:18:21.187Z,7.83
2018-12-31T12:23:25.617Z,7.79
2018-12-31T12:28:30.541Z,7.57
2018-12-31T12:33:34.900Z,7.71
2018-12-31T12:38:39.558Z,7.73
2018-12-31T12:43:43.917Z,7.68
2018-12-31T12:48:48.679Z,7.83
2018-12-31T12:53:53.198Z,7.76
2018-12-31T12:58:58.119Z,7.61
2018-12-31T13:04:02.460Z,7.65
2018-12-31T13:09:07.226Z,7.82
2018-12-31T13:14:12.281Z,7.81
2018-12-31T13:19:17.010Z,7.72
2018-12-31T13:24:21.519Z,7.92
2018-12-31T13:29:26.275Z,7.77
2018-12-31T13:34:31.836Z,7.77
2018-12-31T13:39:36.570Z,7.69
2018-12-31T13:44:41.072Z,7.78
2018-12-31T13:49:45.769Z,7.90
2018-12-31T13:54:50.305Z,7.79
2018-12-31T13:59:55.056Z,7.73
2018-12-31T14:04:59.396Z,7.82
2018-12-31T14:10:05.410Z,7.89
2018-12-31T14:15:13.569Z,7.85
2018-12-31T14:20:41.200Z,7.79
2018-12-31T14:25:47.215Z,7.70
2018-12-31T14:30:51.995Z,7.77
2018-12-31T14:35:56.527Z,7.69
2018-12-31T14:41:00.915Z,7.56
2018-12-31T14:46:05.627Z,7.75
2018-12-31T14:51:10.045Z,7.76
2018-12-31T14:56:14.636Z,7.79
2018-12-31T15:01:19.050Z,7.74
2018-12-31T15:06:23.823Z,7.69
2018-12-31T15:11:28.261Z,7.62
2018-12-31T15:16:33.170Z,7.66
2018-12-31T15:21:37.588Z,7.61
2018-12-31T15:26:42.186Z,7.62
2018-12-31T15:31:46.508Z,7.69
2018-12-31T15:36:50.884Z,7.65
2018-12-31T15:41:55.268Z,7.68
2018-12-31T15:46:59.617Z,7.51
2018-12-31T15:52:03.990Z,7.49
2018-12-31T15:57:08.418Z,7.50
2018-12-31T16:02:12.769Z,7.42
2018-12-31T16:07:17.185Z,7.62
2018-12-31T16:12:21.606Z,7.59
2018-12-31T16:17:25.966Z,7.63
2018-12-31T16:22:30.320Z,7.58
2018-12-31T16:27:34.739Z,7.59
2018-12-31T16:32:39.121Z,7.72
2018-12-31T16:37:43.570Z,7.68
2018-12-31T16:42:47.947Z,7.79
2018-12-31T16:47:52.292Z,7.68
2018-12-31T16:52:56.652Z,7.55
2018-12-31T16:58:01.022Z,7.56
2018-12-31T17:03:05.375Z,7.46
2018-12-31T17:08:09.758Z,7.54
2018-12-31T17:13:14.129Z,7.66
2018-12-31T17:18:18.465Z,7.59
2018-12-31T17:23:22.842Z,7.68
2018-12-31T17:28:27.321Z,7.61
2018-12-31T17:33:31.702Z,7.54
2018-12-31T17:38:36.050Z,7.43
2018-12-31T17:43:40.424Z,7.57
2018-12-31T17:48:44.785Z,7.68
2018-12-31T17:53:49.149Z,7.52
2018-12-31T17:58:53.526Z,7.51
2018-12-31T18:03:57.883Z,7.45
2018-12-31T18:09:02.312Z,7.49
2018-12-31T18:14:07.700Z,7.52
2018-12-31T18:19:13.198Z,7.60
2018-12-31T18:24:17.701Z,7.46
2018-12-31T18:29:22.097Z,7.35
2018-12-31T18:34:26.500Z,7.43
2018-12-31T18:39:30.860Z,7.36
2018-12-31T18:44:35.628Z,7.29
2018-12-31T18:49:39.980Z,7.47
2018-12-31T18:54:44.744Z,7.60
2018-12-31T18:59:49.121Z,7.55
2018-12-31T19:04:54.947Z,7.54
2018-12-31T19:09:59.293Z,7.57
2018-12-31T19:15:03.817Z,7.53
2018-12-31T19:20:08.158Z,7.67
2018-12-31T19:25:12.542Z,7.64
2018-12-31T19:30:16.983Z,7.62
2018-12-31T19:35:21.433Z,7.58
2018-12-31T19:40:25.809Z,7.79
2018-12-31T19:45:30.114Z,7.53
2018-12-31T19:50:34.503Z,7.55
2018-12-31T19:55:38.914Z,7.59
2018-12-31T20:00:43.297Z,7.58
2018-12-31T20:05:47.714Z,7.63
2018-12-31T20:10:52.107Z,7.57
2018-12-31T20:15:56.487Z,7.71
2018-12-31T20:21:00.894Z,7.65
2018-12-31T20:26:05.320Z,7.72
2018-12-31T20:31:09.765Z,7.66
2018-12-31T20:36:14.128Z,7.61
2018-12-31T20:41:18.571Z,7.68
2018-12-31T20:46:22.946Z,7.64
2018-12-31T20:51:27.295Z,7.69
2018-12-31T20:56:31.708Z,7.73
2018-12-31T21:01:36.091Z,7.71
2018-12-31T21:06:40.550Z,7.76
2018-12-31T21:11:44.956Z,7.69
2018-12-31T21:16:49.391Z,7.60
2018-12-31T21:21:53.861Z,7.67
2018-12-31T21:26:58.290Z,7.69
2018-12-31T21:32:02.654Z,7.58
2018-12-31T21:37:07.015Z,7.56
2018-12-31T21:42:11.345Z,7.60
2018-12-31T21:47:15.720Z,7.60
2018-12-31T21:52:20.120Z,7.59
2018-12-31T21:57:24.472Z,7.57
2018-12-31T22:02:28.834Z,7.57
2018-12-31T22:07:33.575Z,7.53
2018-12-31T22:12:38.293Z,7.55
2018-12-31T22:17:43.133Z,7.56
2018-12-31T22:22:47.482Z,7.65
2018-12-31T22:27:52.154Z,7.72
2018-12-31T22:32:56.532Z,7.67
2018-12-31T22:38:00.958Z,7.78
2018-12-31T22:43:05.406Z,7.68
2018-12-31T22:48:09.787Z,7.64
2018-12-31T22:53:14.570Z,7.71
2018-12-31T22:58:18.948Z,7.73
2018-12-31T23:03:24.321Z,7.71
2018-12-31T23:08:28.719Z,7.87
2018-12-31T23:13:33.346Z,8.00
2018-12-31T23:18:37.708Z,8.16
2018-12-31T23:23:42.083Z,8.21
2018-12-31T23:28:52.472Z,8.14
2018-12-31T23:33:52.621Z,8.22
2018-12-31T23:38:57.016Z,8.32
2018-12-31T23:44:02.804Z,8.30
2018-12-31T23:49:07.264Z,8.24
2018-12-31T23:54:11.657Z,8.28
2018-12-31T23:59:16.002Z,8.34
